sensor_id;sensor_type;location;lat;lon;timestamp;P1;durP1;ratioP1;P2;durP2;ratioP2
51560;SDS011;37654;51.262;17.058;2023-02-28T00:00:18;33.50;;;14.10;;
51560;SDS011;37654;51.262;17.058;2023-02-28T00:02:43;42.47;;;15.07;;
51560;SDS011;37654;51.262;17.058;2023-02-28T00:05:10;32.22;;;13.73;;
51560;SDS011;37654;51.262;17.058;2023-02-28T00:07:36;35.75;;;14.68;;
51560;SDS011;37654;51.262;17.058;2023-02-28T00:10:02;34.33;;;14.65;;
51560;SDS011;37654;51.262;17.058;2023-02-28T00:12:27;36.03;;;14.95;;
51560;SDS011;37654;51.262;17.058;2023-02-28T00:14:53;36.72;;;15.13;;
51560;SDS011;37654;51.262;17.058;2023-02-28T00:17:18;29.52;;;13.52;;
51560;SDS011;37654;51.262;17.058;2023-02-28T00:19:46;30.25;;;13.55;;
51560;SDS011;37654;51.262;17.058;2023-02-28T00:22:12;31.52;;;12.52;;
51560;SDS011;37654;51.262;17.058;2023-02-28T00:24:37;30.70;;;13.63;;
51560;SDS011;37654;51.262;17.058;2023-02-28T00:27:02;27.73;;;12.15;;
51560;SDS011;37654;51.262;17.058;2023-02-28T00:29:28;30.05;;;11.82;;
51560;SDS011;37654;51.262;17.058;2023-02-28T00:31:53;31.40;;;12.68;;
51560;SDS011;37654;51.262;17.058;2023-02-28T00:34:18;35.42;;;14.45;;
51560;SDS011;37654;51.262;17.058;2023-02-28T00:36:43;36.05;;;14.40;;
51560;SDS011;37654;51.262;17.058;2023-02-28T00:39:11;30.92;;;14.40;;
51560;SDS011;37654;51.262;17.058;2023-02-28T00:41:36;29.05;;;13.82;;
51560;SDS011;37654;51.262;17.058;2023-02-28T00:44:01;31.25;;;14.60;;
51560;SDS011;37654;51.262;17.058;2023-02-28T00:46:27;32.38;;;14.00;;
51560;SDS011;37654;51.262;17.058;2023-02-28T00:48:52;31.75;;;14.85;;
51560;SDS011;37654;51.262;17.058;2023-02-28T00:51:17;35.08;;;15.10;;
51560;SDS011;37654;51.262;17.058;2023-02-28T00:53:42;33.00;;;16.42;;
51560;SDS011;37654;51.262;17.058;2023-02-28T00:56:08;36.17;;;15.68;;
51560;SDS011;37654;51.262;17.058;2023-02-28T00:58:33;27.73;;;15.18;;
51560;SDS011;37654;51.262;17.058;2023-02-28T01:00:58;30.48;;;14.30;;
51560;SDS011;37654;51.262;17.058;2023-02-28T01:03:24;30.13;;;14.95;;
51560;SDS011;37654;51.262;17.058;2023-02-28T01:05:49;33.45;;;14.55;;
51560;SDS011;37654;51.262;17.058;2023-02-28T01:08:14;32.10;;;13.95;;
51560;SDS011;37654;51.262;17.058;2023-02-28T01:10:40;31.00;;;13.25;;
51560;SDS011;37654;51.262;17.058;2023-02-28T01:13:05;38.00;;;15.35;;
51560;SDS011;37654;51.262;17.058;2023-02-28T01:15:31;30.52;;;14.00;;
51560;SDS011;37654;51.262;17.058;2023-02-28T01:17:57;27.33;;;12.48;;
51560;SDS011;37654;51.262;17.058;2023-02-28T01:20:22;36.30;;;13.40;;
51560;SDS011;37654;51.262;17.058;2023-02-28T01:22:47;29.80;;;13.35;;
51560;SDS011;37654;51.262;17.058;2023-02-28T01:25:13;30.58;;;13.63;;
51560;SDS011;37654;51.262;17.058;2023-02-28T01:27:38;34.33;;;14.55;;
51560;SDS011;37654;51.262;17.058;2023-02-28T01:30:05;33.40;;;14.30;;
51560;SDS011;37654;51.262;17.058;2023-02-28T01:32:30;29.42;;;12.80;;
51560;SDS011;37654;51.262;17.058;2023-02-28T01:34:55;29.08;;;12.75;;
51560;SDS011;37654;51.262;17.058;2023-02-28T01:37:21;31.77;;;14.00;;
51560;SDS011;37654;51.262;17.058;2023-02-28T01:39:46;30.52;;;13.05;;
51560;SDS011;37654;51.262;17.058;2023-02-28T01:42:11;35.63;;;13.43;;
51560;SDS011;37654;51.262;17.058;2023-02-28T01:47:17;31.25;;;13.52;;
51560;SDS011;37654;51.262;17.058;2023-02-28T01:49:42;28.90;;;13.73;;
51560;SDS011;37654;51.262;17.058;2023-02-28T01:52:07;31.70;;;14.88;;
51560;SDS011;37654;51.262;17.058;2023-02-28T01:54:34;36.35;;;15.20;;
51560;SDS011;37654;51.262;17.058;2023-02-28T01:59:35;32.63;;;15.27;;
51560;SDS011;37654;51.262;17.058;2023-02-28T02:02:02;33.05;;;14.43;;
51560;SDS011;37654;51.262;17.058;2023-02-28T02:04:31;34.85;;;14.13;;
51560;SDS011;37654;51.262;17.058;2023-02-28T02:06:56;29.23;;;13.88;;
51560;SDS011;37654;51.262;17.058;2023-02-28T02:09:23;35.63;;;16.42;;
51560;SDS011;37654;51.262;17.058;2023-02-28T02:11:48;34.65;;;15.52;;
51560;SDS011;37654;51.262;17.058;2023-02-28T02:14:18;29.48;;;15.18;;
51560;SDS011;37654;51.262;17.058;2023-02-28T02:37:15;30.08;;;12.77;;
51560;SDS011;37654;51.262;17.058;2023-02-28T02:42:15;27.80;;;10.77;;
51560;SDS011;37654;51.262;17.058;2023-02-28T02:44:49;30.38;;;10.45;;
51560;SDS011;37654;51.262;17.058;2023-02-28T02:47:16;21.05;;;10.98;;
51560;SDS011;37654;51.262;17.058;2023-02-28T02:49:44;32.88;;;13.38;;
51560;SDS011;37654;51.262;17.058;2023-02-28T02:52:10;21.55;;;11.85;;
51560;SDS011;37654;51.262;17.058;2023-02-28T02:54:37;24.13;;;10.75;;
51560;SDS011;37654;51.262;17.058;2023-02-28T02:57:08;26.38;;;12.63;;
51560;SDS011;37654;51.262;17.058;2023-02-28T02:59:35;23.10;;;10.15;;
51560;SDS011;37654;51.262;17.058;2023-02-28T03:02:01;22.98;;;10.18;;
51560;SDS011;37654;51.262;17.058;2023-02-28T03:04:30;22.05;;;10.68;;
51560;SDS011;37654;51.262;17.058;2023-02-28T03:06:57;23.75;;;9.73;;
51560;SDS011;37654;51.262;17.058;2023-02-28T03:09:22;22.17;;;10.40;;
51560;SDS011;37654;51.262;17.058;2023-02-28T03:11:48;28.55;;;10.73;;
51560;SDS011;37654;51.262;17.058;2023-02-28T03:21:57;22.85;;;11.80;;
51560;SDS011;37654;51.262;17.058;2023-02-28T03:24:29;25.80;;;11.98;;
51560;SDS011;37654;51.262;17.058;2023-02-28T03:26:58;22.80;;;10.52;;
51560;SDS011;37654;51.262;17.058;2023-02-28T03:29:29;24.92;;;11.05;;
51560;SDS011;37654;51.262;17.058;2023-02-28T03:32:05;24.30;;;11.07;;
51560;SDS011;37654;51.262;17.058;2023-02-28T03:34:37;24.20;;;11.02;;
51560;SDS011;37654;51.262;17.058;2023-02-28T03:37:07;20.08;;;9.70;;
51560;SDS011;37654;51.262;17.058;2023-02-28T03:39:35;18.23;;;8.68;;
51560;SDS011;37654;51.262;17.058;2023-02-28T03:42:04;23.75;;;11.23;;
51560;SDS011;37654;51.262;17.058;2023-02-28T03:44:32;24.17;;;10.70;;
51560;SDS011;37654;51.262;17.058;2023-02-28T03:47:04;19.77;;;10.13;;
51560;SDS011;37654;51.262;17.058;2023-02-28T03:50:05;25.20;;;9.90;;
51560;SDS011;37654;51.262;17.058;2023-02-28T03:52:22;19.05;;;10.20;;
51560;SDS011;37654;51.262;17.058;2023-02-28T03:54:50;21.38;;;10.65;;
51560;SDS011;37654;51.262;17.058;2023-02-28T04:00:04;27.35;;;10.20;;
51560;SDS011;37654;51.262;17.058;2023-02-28T04:02:31;24.17;;;10.73;;
51560;SDS011;37654;51.262;17.058;2023-02-28T04:04:57;24.58;;;10.63;;
51560;SDS011;37654;51.262;17.058;2023-02-28T04:07:22;23.52;;;9.95;;
51560;SDS011;37654;51.262;17.058;2023-02-28T04:09:47;21.23;;;9.77;;
51560;SDS011;37654;51.262;17.058;2023-02-28T04:12:13;22.25;;;10.60;;
51560;SDS011;37654;51.262;17.058;2023-02-28T04:14:38;24.77;;;10.68;;
51560;SDS011;37654;51.262;17.058;2023-02-28T04:17:03;22.45;;;11.10;;
51560;SDS011;37654;51.262;17.058;2023-02-28T04:19:29;26.65;;;11.98;;
51560;SDS011;37654;51.262;17.058;2023-02-28T04:21:54;31.45;;;12.73;;
51560;SDS011;37654;51.262;17.058;2023-02-28T04:24:20;28.75;;;13.68;;
51560;SDS011;37654;51.262;17.058;2023-02-28T04:26:47;32.95;;;13.80;;
51560;SDS011;37654;51.262;17.058;2023-02-28T04:29:15;31.65;;;14.32;;
51560;SDS011;37654;51.262;17.058;2023-02-28T04:31:42;36.53;;;14.23;;
51560;SDS011;37654;51.262;17.058;2023-02-28T04:34:08;34.22;;;14.60;;
51560;SDS011;37654;51.262;17.058;2023-02-28T04:36:33;33.80;;;14.95;;
51560;SDS011;37654;51.262;17.058;2023-02-28T04:38:58;39.05;;;15.00;;
51560;SDS011;37654;51.262;17.058;2023-02-28T04:41:23;35.97;;;17.40;;
51560;SDS011;37654;51.262;17.058;2023-02-28T04:43:50;36.17;;;15.77;;
51560;SDS011;37654;51.262;17.058;2023-02-28T04:46:15;32.45;;;16.02;;
51560;SDS011;37654;51.262;17.058;2023-02-28T04:48:41;36.65;;;16.63;;
51560;SDS011;37654;51.262;17.058;2023-02-28T04:51:08;39.03;;;16.50;;
51560;SDS011;37654;51.262;17.058;2023-02-28T04:53:34;38.83;;;18.05;;
51560;SDS011;37654;51.262;17.058;2023-02-28T04:55:59;39.78;;;17.35;;
51560;SDS011;37654;51.262;17.058;2023-02-28T04:58:25;40.55;;;17.70;;
51560;SDS011;37654;51.262;17.058;2023-02-28T05:00:51;33.25;;;16.30;;
51560;SDS011;37654;51.262;17.058;2023-02-28T05:03:16;40.53;;;17.98;;
51560;SDS011;37654;51.262;17.058;2023-02-28T05:05:41;42.13;;;20.02;;
51560;SDS011;37654;51.262;17.058;2023-02-28T05:08:07;44.97;;;19.42;;
51560;SDS011;37654;51.262;17.058;2023-02-28T05:10:32;41.85;;;17.83;;
51560;SDS011;37654;51.262;17.058;2023-02-28T05:12:57;40.90;;;19.48;;
51560;SDS011;37654;51.262;17.058;2023-02-28T05:15:23;40.67;;;19.83;;
51560;SDS011;37654;51.262;17.058;2023-02-28T05:17:48;44.50;;;21.00;;
51560;SDS011;37654;51.262;17.058;2023-02-28T05:20:13;44.45;;;20.90;;
51560;SDS011;37654;51.262;17.058;2023-02-28T05:22:39;45.70;;;21.42;;
51560;SDS011;37654;51.262;17.058;2023-02-28T05:25:04;38.40;;;19.58;;
51560;SDS011;37654;51.262;17.058;2023-02-28T05:27:30;45.20;;;20.58;;
51560;SDS011;37654;51.262;17.058;2023-02-28T05:29:56;50.70;;;21.42;;
51560;SDS011;37654;51.262;17.058;2023-02-28T05:32:21;44.72;;;19.98;;
51560;SDS011;37654;51.262;17.058;2023-02-28T05:34:46;47.95;;;20.63;;
51560;SDS011;37654;51.262;17.058;2023-02-28T05:37:13;48.10;;;21.40;;
51560;SDS011;37654;51.262;17.058;2023-02-28T05:39:38;42.70;;;19.73;;
51560;SDS011;37654;51.262;17.058;2023-02-28T05:42:04;41.55;;;18.45;;
51560;SDS011;37654;51.262;17.058;2023-02-28T05:44:29;43.40;;;18.95;;
51560;SDS011;37654;51.262;17.058;2023-02-28T05:46:55;40.25;;;18.05;;
51560;SDS011;37654;51.262;17.058;2023-02-28T05:49:20;38.47;;;17.88;;
51560;SDS011;37654;51.262;17.058;2023-02-28T05:51:45;39.22;;;17.25;;
51560;SDS011;37654;51.262;17.058;2023-02-28T05:54:10;40.42;;;18.25;;
51560;SDS011;37654;51.262;17.058;2023-02-28T05:56:36;43.35;;;18.75;;
51560;SDS011;37654;51.262;17.058;2023-02-28T05:59:03;40.80;;;17.30;;
51560;SDS011;37654;51.262;17.058;2023-02-28T06:01:33;44.47;;;18.20;;
51560;SDS011;37654;51.262;17.058;2023-02-28T06:03:59;38.15;;;17.55;;
51560;SDS011;37654;51.262;17.058;2023-02-28T06:06:25;40.10;;;18.23;;
51560;SDS011;37654;51.262;17.058;2023-02-28T06:08:50;38.45;;;17.02;;
51560;SDS011;37654;51.262;17.058;2023-02-28T06:11:16;38.40;;;18.10;;
51560;SDS011;37654;51.262;17.058;2023-02-28T06:13:41;43.13;;;19.08;;
51560;SDS011;37654;51.262;17.058;2023-02-28T06:16:07;38.88;;;19.85;;
51560;SDS011;37654;51.262;17.058;2023-02-28T06:18:32;43.92;;;19.88;;
51560;SDS011;37654;51.262;17.058;2023-02-28T06:20:58;42.03;;;19.40;;
51560;SDS011;37654;51.262;17.058;2023-02-28T06:23:23;39.80;;;20.00;;
51560;SDS011;37654;51.262;17.058;2023-02-28T06:25:48;40.03;;;18.30;;
51560;SDS011;37654;51.262;17.058;2023-02-28T06:28:14;35.83;;;19.25;;
51560;SDS011;37654;51.262;17.058;2023-02-28T06:30:40;37.28;;;18.08;;
51560;SDS011;37654;51.262;17.058;2023-02-28T06:33:05;37.63;;;18.70;;
51560;SDS011;37654;51.262;17.058;2023-02-28T06:35:30;42.90;;;20.47;;
51560;SDS011;37654;51.262;17.058;2023-02-28T06:37:56;40.17;;;20.10;;
51560;SDS011;37654;51.262;17.058;2023-02-28T06:40:21;39.38;;;22.02;;
51560;SDS011;37654;51.262;17.058;2023-02-28T06:42:46;40.60;;;21.47;;
51560;SDS011;37654;51.262;17.058;2023-02-28T06:45:11;34.07;;;19.57;;
51560;SDS011;37654;51.262;17.058;2023-02-28T06:47:37;41.10;;;22.15;;
51560;SDS011;37654;51.262;17.058;2023-02-28T06:50:03;43.20;;;21.05;;
51560;SDS011;37654;51.262;17.058;2023-02-28T06:52:29;35.85;;;20.38;;
51560;SDS011;37654;51.262;17.058;2023-02-28T06:54:54;34.28;;;19.60;;
51560;SDS011;37654;51.262;17.058;2023-02-28T06:57:28;36.47;;;20.88;;
51560;SDS011;37654;51.262;17.058;2023-02-28T06:59:55;38.92;;;22.95;;
51560;SDS011;37654;51.262;17.058;2023-02-28T07:02:21;33.35;;;20.88;;
51560;SDS011;37654;51.262;17.058;2023-02-28T07:04:46;35.53;;;21.40;;
51560;SDS011;37654;51.262;17.058;2023-02-28T07:07:11;36.88;;;22.40;;
51560;SDS011;37654;51.262;17.058;2023-02-28T07:09:37;37.73;;;21.73;;
51560;SDS011;37654;51.262;17.058;2023-02-28T07:12:02;37.73;;;21.83;;
51560;SDS011;37654;51.262;17.058;2023-02-28T07:14:27;35.57;;;22.77;;
51560;SDS011;37654;51.262;17.058;2023-02-28T07:16:52;35.90;;;22.57;;
51560;SDS011;37654;51.262;17.058;2023-02-28T07:19:18;36.97;;;22.30;;
51560;SDS011;37654;51.262;17.058;2023-02-28T07:21:43;38.58;;;22.45;;
51560;SDS011;37654;51.262;17.058;2023-02-28T07:24:08;33.50;;;20.30;;
51560;SDS011;37654;51.262;17.058;2023-02-28T07:26:34;35.23;;;20.20;;
51560;SDS011;37654;51.262;17.058;2023-02-28T07:28:59;37.63;;;22.70;;
51560;SDS011;37654;51.262;17.058;2023-02-28T07:31:24;40.57;;;23.00;;
51560;SDS011;37654;51.262;17.058;2023-02-28T07:33:50;33.03;;;20.75;;
51560;SDS011;37654;51.262;17.058;2023-02-28T07:36:16;37.67;;;23.33;;
51560;SDS011;37654;51.262;17.058;2023-02-28T07:38:44;31.38;;;20.02;;
51560;SDS011;37654;51.262;17.058;2023-02-28T07:41:09;26.83;;;16.67;;
51560;SDS011;37654;51.262;17.058;2023-02-28T07:43:35;23.13;;;14.27;;
51560;SDS011;37654;51.262;17.058;2023-02-28T07:46:05;27.05;;;15.82;;
51560;SDS011;37654;51.262;17.058;2023-02-28T07:48:31;25.60;;;16.15;;
51560;SDS011;37654;51.262;17.058;2023-02-28T07:50:56;27.38;;;17.30;;
51560;SDS011;37654;51.262;17.058;2023-02-28T07:53:22;27.40;;;17.35;;
51560;SDS011;37654;51.262;17.058;2023-02-28T07:55:47;25.93;;;16.33;;
51560;SDS011;37654;51.262;17.058;2023-02-28T07:58:13;26.77;;;17.38;;
51560;SDS011;37654;51.262;17.058;2023-02-28T08:00:38;29.97;;;18.33;;
51560;SDS011;37654;51.262;17.058;2023-02-28T08:03:03;24.90;;;16.73;;
51560;SDS011;37654;51.262;17.058;2023-02-28T08:05:28;25.80;;;17.07;;
51560;SDS011;37654;51.262;17.058;2023-02-28T08:07:55;24.55;;;16.05;;
51560;SDS011;37654;51.262;17.058;2023-02-28T08:10:20;24.25;;;16.15;;
51560;SDS011;37654;51.262;17.058;2023-02-28T08:12:45;22.60;;;15.73;;
51560;SDS011;37654;51.262;17.058;2023-02-28T08:15:11;25.23;;;18.27;;
51560;SDS011;37654;51.262;17.058;2023-02-28T08:17:36;25.63;;;17.20;;
51560;SDS011;37654;51.262;17.058;2023-02-28T08:20:01;26.30;;;17.13;;
51560;SDS011;37654;51.262;17.058;2023-02-28T08:22:27;24.43;;;16.73;;
51560;SDS011;37654;51.262;17.058;2023-02-28T08:24:52;26.77;;;17.33;;
51560;SDS011;37654;51.262;17.058;2023-02-28T08:27:17;23.27;;;15.87;;
51560;SDS011;37654;51.262;17.058;2023-02-28T08:29:43;23.57;;;14.67;;
51560;SDS011;37654;51.262;17.058;2023-02-28T08:32:08;19.35;;;13.07;;
51560;SDS011;37654;51.262;17.058;2023-02-28T08:34:33;17.67;;;12.47;;
51560;SDS011;37654;51.262;17.058;2023-02-28T08:36:59;26.83;;;14.02;;
51560;SDS011;37654;51.262;17.058;2023-02-28T08:39:24;19.53;;;13.10;;
51560;SDS011;37654;51.262;17.058;2023-02-28T08:41:49;22.92;;;14.50;;
51560;SDS011;37654;51.262;17.058;2023-02-28T08:44:15;22.60;;;14.20;;
51560;SDS011;37654;51.262;17.058;2023-02-28T08:46:40;20.03;;;12.67;;
51560;SDS011;37654;51.262;17.058;2023-02-28T08:49:05;16.17;;;10.23;;
51560;SDS011;37654;51.262;17.058;2023-02-28T08:51:32;18.10;;;11.77;;
51560;SDS011;37654;51.262;17.058;2023-02-28T08:53:58;20.58;;;11.75;;
51560;SDS011;37654;51.262;17.058;2023-02-28T08:56:24;18.85;;;11.95;;
51560;SDS011;37654;51.262;17.058;2023-02-28T08:58:50;18.83;;;11.50;;
51560;SDS011;37654;51.262;17.058;2023-02-28T09:01:16;17.00;;;10.23;;
51560;SDS011;37654;51.262;17.058;2023-02-28T09:03:42;18.08;;;11.25;;
51560;SDS011;37654;51.262;17.058;2023-02-28T09:06:08;17.58;;;10.88;;
51560;SDS011;37654;51.262;17.058;2023-02-28T09:08:33;12.45;;;7.43;;
51560;SDS011;37654;51.262;17.058;2023-02-28T09:10:59;11.75;;;7.53;;
51560;SDS011;37654;51.262;17.058;2023-02-28T09:13:25;9.88;;;6.53;;
51560;SDS011;37654;51.262;17.058;2023-02-28T09:15:50;9.52;;;7.05;;
51560;SDS011;37654;51.262;17.058;2023-02-28T09:18:16;11.70;;;7.30;;
51560;SDS011;37654;51.262;17.058;2023-02-28T09:20:41;8.40;;;5.83;;
51560;SDS011;37654;51.262;17.058;2023-02-28T09:23:07;5.35;;;3.70;;
51560;SDS011;37654;51.262;17.058;2023-02-28T09:25:33;7.95;;;5.00;;
51560;SDS011;37654;51.262;17.058;2023-02-28T09:27:58;5.47;;;4.07;;
51560;SDS011;37654;51.262;17.058;2023-02-28T09:30:24;7.37;;;4.47;;
51560;SDS011;37654;51.262;17.058;2023-02-28T09:32:49;9.40;;;5.17;;
51560;SDS011;37654;51.262;17.058;2023-02-28T09:35:19;9.93;;;6.00;;
51560;SDS011;37654;51.262;17.058;2023-02-28T09:37:46;10.48;;;6.65;;
51560;SDS011;37654;51.262;17.058;2023-02-28T09:40:12;13.00;;;8.23;;
51560;SDS011;37654;51.262;17.058;2023-02-28T09:42:37;11.82;;;7.15;;
51560;SDS011;37654;51.262;17.058;2023-02-28T09:45:06;9.98;;;6.97;;
51560;SDS011;37654;51.262;17.058;2023-02-28T09:47:42;11.65;;;8.63;;
51560;SDS011;37654;51.262;17.058;2023-02-28T09:52:48;12.60;;;8.00;;
51560;SDS011;37654;51.262;17.058;2023-02-28T09:57:40;13.40;;;8.63;;
51560;SDS011;37654;51.262;17.058;2023-02-28T10:02:41;7.97;;;6.15;;
51560;SDS011;37654;51.262;17.058;2023-02-28T10:05:12;10.48;;;7.22;;
51560;SDS011;37654;51.262;17.058;2023-02-28T10:12:45;11.80;;;7.25;;
51560;SDS011;37654;51.262;17.058;2023-02-28T10:15:15;15.38;;;8.48;;
51560;SDS011;37654;51.262;17.058;2023-02-28T10:17:41;12.45;;;7.68;;
51560;SDS011;37654;51.262;17.058;2023-02-28T10:20:10;12.48;;;8.02;;
51560;SDS011;37654;51.262;17.058;2023-02-28T10:22:41;12.90;;;7.90;;
51560;SDS011;37654;51.262;17.058;2023-02-28T10:25:19;13.00;;;8.48;;
51560;SDS011;37654;51.262;17.058;2023-02-28T10:27:45;14.43;;;8.75;;
51560;SDS011;37654;51.262;17.058;2023-02-28T10:30:10;13.37;;;8.63;;
51560;SDS011;37654;51.262;17.058;2023-02-28T10:32:36;12.95;;;8.50;;
51560;SDS011;37654;51.262;17.058;2023-02-28T10:35:10;13.95;;;8.60;;
51560;SDS011;37654;51.262;17.058;2023-02-28T10:37:40;13.57;;;8.98;;
51560;SDS011;37654;51.262;17.058;2023-02-28T10:40:06;13.38;;;8.93;;
51560;SDS011;37654;51.262;17.058;2023-02-28T10:42:32;17.27;;;9.10;;
51560;SDS011;37654;51.262;17.058;2023-02-28T10:45:18;15.35;;;8.80;;
51560;SDS011;37654;51.262;17.058;2023-02-28T10:47:49;15.38;;;8.77;;
51560;SDS011;37654;51.262;17.058;2023-02-28T10:51:18;15.40;;;8.20;;
51560;SDS011;37654;51.262;17.058;2023-02-28T10:55:39;16.58;;;8.75;;
51560;SDS011;37654;51.262;17.058;2023-02-28T10:58:15;15.07;;;8.30;;
51560;SDS011;37654;51.262;17.058;2023-02-28T11:00:45;16.05;;;8.50;;
51560;SDS011;37654;51.262;17.058;2023-02-28T11:03:32;15.57;;;8.35;;
51560;SDS011;37654;51.262;17.058;2023-02-28T11:05:57;18.83;;;8.85;;
51560;SDS011;37654;51.262;17.058;2023-02-28T11:08:22;14.02;;;8.48;;
51560;SDS011;37654;51.262;17.058;2023-02-28T11:10:54;12.93;;;7.90;;
51560;SDS011;37654;51.262;17.058;2023-02-28T11:13:21;13.90;;;7.38;;
51560;SDS011;37654;51.262;17.058;2023-02-28T11:15:50;18.00;;;7.68;;
51560;SDS011;37654;51.262;17.058;2023-02-28T11:20:47;14.82;;;8.63;;
51560;SDS011;37654;51.262;17.058;2023-02-28T11:23:13;19.92;;;8.80;;
51560;SDS011;37654;51.262;17.058;2023-02-28T11:25:39;14.32;;;8.43;;
51560;SDS011;37654;51.262;17.058;2023-02-28T11:28:05;14.93;;;8.68;;
51560;SDS011;37654;51.262;17.058;2023-02-28T11:32:57;14.07;;;8.33;;
51560;SDS011;37654;51.262;17.058;2023-02-28T11:37:47;13.43;;;7.13;;
51560;SDS011;37654;51.262;17.058;2023-02-28T11:40:17;14.48;;;6.95;;
51560;SDS011;37654;51.262;17.058;2023-02-28T11:42:50;11.05;;;7.03;;
51560;SDS011;37654;51.262;17.058;2023-02-28T11:48:08;9.52;;;5.78;;
51560;SDS011;37654;51.262;17.058;2023-02-28T11:55:47;11.60;;;6.70;;
51560;SDS011;37654;51.262;17.058;2023-02-28T11:58:23;11.48;;;6.43;;
51560;SDS011;37654;51.262;17.058;2023-02-28T12:21:14;16.27;;;8.33;;
51560;SDS011;37654;51.262;17.058;2023-02-28T12:23:46;15.02;;;8.18;;
51560;SDS011;37654;51.262;17.058;2023-02-28T12:26:18;15.90;;;9.20;;
51560;SDS011;37654;51.262;17.058;2023-02-28T12:28:57;16.88;;;8.32;;
51560;SDS011;37654;51.262;17.058;2023-02-28T12:31:27;16.55;;;9.88;;
51560;SDS011;37654;51.262;17.058;2023-02-28T12:33:54;19.38;;;10.50;;
51560;SDS011;37654;51.262;17.058;2023-02-28T12:36:21;15.40;;;9.32;;
51560;SDS011;37654;51.262;17.058;2023-02-28T12:38:53;18.02;;;9.88;;
51560;SDS011;37654;51.262;17.058;2023-02-28T12:41:29;18.55;;;9.82;;
51560;SDS011;37654;51.262;17.058;2023-02-28T12:44:44;18.17;;;9.98;;
51560;SDS011;37654;51.262;17.058;2023-02-28T12:46:48;20.93;;;10.57;;
51560;SDS011;37654;51.262;17.058;2023-02-28T12:49:19;19.35;;;9.48;;
51560;SDS011;37654;51.262;17.058;2023-02-28T12:51:46;17.70;;;10.50;;
51560;SDS011;37654;51.262;17.058;2023-02-28T12:54:15;23.25;;;10.90;;
51560;SDS011;37654;51.262;17.058;2023-02-28T12:59:10;18.67;;;9.57;;
51560;SDS011;37654;51.262;17.058;2023-02-28T13:01:42;18.70;;;9.35;;
51560;SDS011;37654;51.262;17.058;2023-02-28T13:07:08;18.08;;;8.77;;
51560;SDS011;37654;51.262;17.058;2023-02-28T13:09:35;18.48;;;9.35;;
51560;SDS011;37654;51.262;17.058;2023-02-28T13:12:01;20.70;;;10.43;;
51560;SDS011;37654;51.262;17.058;2023-02-28T13:14:37;18.17;;;8.95;;
51560;SDS011;37654;51.262;17.058;2023-02-28T13:17:12;20.08;;;9.52;;
51560;SDS011;37654;51.262;17.058;2023-02-28T13:19:41;18.00;;;9.75;;
51560;SDS011;37654;51.262;17.058;2023-02-28T13:22:19;21.30;;;9.98;;
51560;SDS011;37654;51.262;17.058;2023-02-28T13:24:46;17.85;;;10.15;;
51560;SDS011;37654;51.262;17.058;2023-02-28T13:29:41;20.02;;;9.20;;
51560;SDS011;37654;51.262;17.058;2023-02-28T13:34:35;17.25;;;9.25;;
51560;SDS011;37654;51.262;17.058;2023-02-28T13:42:51;21.77;;;10.57;;
51560;SDS011;37654;51.262;17.058;2023-02-28T13:50:41;15.32;;;8.00;;
51560;SDS011;37654;51.262;17.058;2023-02-28T13:53:35;15.35;;;7.45;;
51560;SDS011;37654;51.262;17.058;2023-02-28T14:00:44;14.18;;;7.65;;
51560;SDS011;37654;51.262;17.058;2023-02-28T14:05:40;16.75;;;8.88;;
51560;SDS011;37654;51.262;17.058;2023-02-28T14:08:08;11.73;;;7.20;;
51560;SDS011;37654;51.262;17.058;2023-02-28T14:11:24;18.20;;;8.75;;
51560;SDS011;37654;51.262;17.058;2023-02-28T14:15:56;16.90;;;8.27;;
51560;SDS011;37654;51.262;17.058;2023-02-28T14:33:45;14.60;;;8.48;;
51560;SDS011;37654;51.262;17.058;2023-02-28T14:36:21;16.27;;;7.72;;
51560;SDS011;37654;51.262;17.058;2023-02-28T14:41:31;13.45;;;8.38;;
51560;SDS011;37654;51.262;17.058;2023-02-28T14:44:00;13.15;;;7.65;;
51560;SDS011;37654;51.262;17.058;2023-02-28T14:46:26;15.13;;;7.68;;
51560;SDS011;37654;51.262;17.058;2023-02-28T14:48:53;17.15;;;7.97;;
51560;SDS011;37654;51.262;17.058;2023-02-28T14:51:20;18.15;;;8.85;;
51560;SDS011;37654;51.262;17.058;2023-02-28T14:53:47;16.90;;;8.23;;
51560;SDS011;37654;51.262;17.058;2023-02-28T14:56:24;15.30;;;9.52;;
51560;SDS011;37654;51.262;17.058;2023-02-28T15:01:18;16.75;;;9.60;;
51560;SDS011;37654;51.262;17.058;2023-02-28T15:03:44;18.20;;;10.10;;
51560;SDS011;37654;51.262;17.058;2023-02-28T15:06:14;24.17;;;10.90;;
51560;SDS011;37654;51.262;17.058;2023-02-28T15:08:39;18.52;;;10.45;;
51560;SDS011;37654;51.262;17.058;2023-02-28T15:11:05;20.00;;;10.77;;
51560;SDS011;37654;51.262;17.058;2023-02-28T15:13:41;19.70;;;9.88;;
51560;SDS011;37654;51.262;17.058;2023-02-28T15:16:13;18.88;;;10.30;;
51560;SDS011;37654;51.262;17.058;2023-02-28T15:21:16;18.45;;;9.65;;
51560;SDS011;37654;51.262;17.058;2023-02-28T15:23:43;19.50;;;11.02;;
51560;SDS011;37654;51.262;17.058;2023-02-28T15:26:16;17.95;;;9.95;;
51560;SDS011;37654;51.262;17.058;2023-02-28T15:28:42;17.90;;;9.82;;
51560;SDS011;37654;51.262;17.058;2023-02-28T15:31:18;18.33;;;9.38;;
51560;SDS011;37654;51.262;17.058;2023-02-28T15:33:54;21.58;;;11.40;;
51560;SDS011;37654;51.262;17.058;2023-02-28T15:36:21;18.95;;;10.35;;
51560;SDS011;37654;51.262;17.058;2023-02-28T15:38:50;28.00;;;11.80;;
51560;SDS011;37654;51.262;17.058;2023-02-28T15:41:26;20.08;;;10.10;;
51560;SDS011;37654;51.262;17.058;2023-02-28T15:46:31;22.40;;;10.50;;
51560;SDS011;37654;51.262;17.058;2023-02-28T15:48:56;18.20;;;11.13;;
51560;SDS011;37654;51.262;17.058;2023-02-28T15:54:29;19.50;;;11.65;;
51560;SDS011;37654;51.262;17.058;2023-02-28T15:56:55;24.52;;;13.32;;
51560;SDS011;37654;51.262;17.058;2023-02-28T15:59:22;19.60;;;10.77;;
51560;SDS011;37654;51.262;17.058;2023-02-28T16:02:02;24.38;;;13.05;;
51560;SDS011;37654;51.262;17.058;2023-02-28T16:07:30;25.13;;;14.23;;
51560;SDS011;37654;51.262;17.058;2023-02-28T16:09:55;20.83;;;12.90;;
51560;SDS011;37654;51.262;17.058;2023-02-28T16:12:22;22.70;;;13.60;;
51560;SDS011;37654;51.262;17.058;2023-02-28T16:14:50;25.42;;;15.05;;
51560;SDS011;37654;51.262;17.058;2023-02-28T16:17:19;25.63;;;15.23;;
51560;SDS011;37654;51.262;17.058;2023-02-28T16:19:46;31.13;;;16.13;;
51560;SDS011;37654;51.262;17.058;2023-02-28T16:22:11;27.98;;;16.27;;
51560;SDS011;37654;51.262;17.058;2023-02-28T16:24:36;24.13;;;14.48;;
51560;SDS011;37654;51.262;17.058;2023-02-28T16:27:03;29.55;;;15.63;;
51560;SDS011;37654;51.262;17.058;2023-02-28T16:29:32;25.95;;;16.13;;
51560;SDS011;37654;51.262;17.058;2023-02-28T16:31:59;30.60;;;18.48;;
51560;SDS011;37654;51.262;17.058;2023-02-28T16:34:24;27.48;;;16.88;;
51560;SDS011;37654;51.262;17.058;2023-02-28T16:36:50;32.30;;;18.52;;
51560;SDS011;37654;51.262;17.058;2023-02-28T16:39:16;29.25;;;16.77;;
51560;SDS011;37654;51.262;17.058;2023-02-28T16:41:44;31.13;;;17.40;;
51560;SDS011;37654;51.262;17.058;2023-02-28T16:44:10;40.15;;;21.33;;
51560;SDS011;37654;51.262;17.058;2023-02-28T16:46:37;49.88;;;26.27;;